sensor_id;sensor_type;location;lat;lon;timestamp;P1;durP1;ratioP1;P2;durP2;ratioP2
85917;SDS011;76456;49.310;8.632;2024-03-02T00:00:01;18.65;;;8.63;;
85917;SDS011;76456;49.310;8.632;2024-03-02T00:02:34;17.30;;;7.70;;
85917;SDS011;76456;49.310;8.632;2024-03-02T00:05:05;16.13;;;8.35;;
85917;SDS011;76456;49.310;8.632;2024-03-02T00:07:31;19.27;;;9.55;;
85917;SDS011;76456;49.310;8.632;2024-03-02T00:09:57;19.85;;;8.98;;
85917;SDS011;76456;49.310;8.632;2024-03-02T00:12:22;15.20;;;8.57;;
85917;SDS011;76456;49.310;8.632;2024-03-02T00:14:47;19.27;;;9.10;;
85917;SDS011;76456;49.310;8.632;2024-03-02T00:17:16;20.58;;;9.32;;
85917;SDS011;76456;49.310;8.632;2024-03-02T00:19:46;21.25;;;8.60;;
85917;SDS011;76456;49.310;8.632;2024-03-02T00:22:11;20.95;;;9.38;;
85917;SDS011;76456;49.310;8.632;2024-03-02T00:24:37;20.05;;;9.10;;
85917;SDS011;76456;49.310;8.632;2024-03-02T00:27:03;20.75;;;8.52;;
85917;SDS011;76456;49.310;8.632;2024-03-02T00:29:30;17.92;;;8.52;;
85917;SDS011;76456;49.310;8.632;2024-03-02T00:31:55;19.15;;;8.40;;
85917;SDS011;76456;49.310;8.632;2024-03-02T00:34:23;18.08;;;8.27;;
85917;SDS011;76456;49.310;8.632;2024-03-02T00:36:48;16.58;;;8.25;;
85917;SDS011;76456;49.310;8.632;2024-03-02T00:39:17;15.68;;;8.40;;
85917;SDS011;76456;49.310;8.632;2024-03-02T00:41:42;15.23;;;8.05;;
85917;SDS011;76456;49.310;8.632;2024-03-02T00:44:14;16.58;;;7.57;;
85917;SDS011;76456;49.310;8.632;2024-03-02T00:46:41;18.25;;;8.07;;
85917;SDS011;76456;49.310;8.632;2024-03-02T00:49:12;17.38;;;9.00;;
85917;SDS011;76456;49.310;8.632;2024-03-02T00:51:45;16.30;;;8.65;;
85917;SDS011;76456;49.310;8.632;2024-03-02T00:54:13;22.58;;;9.10;;
85917;SDS011;76456;49.310;8.632;2024-03-02T00:56:39;20.45;;;8.52;;
85917;SDS011;76456;49.310;8.632;2024-03-02T00:59:06;19.48;;;8.38;;
85917;SDS011;76456;49.310;8.632;2024-03-02T01:01:31;17.73;;;8.77;;
85917;SDS011;76456;49.310;8.632;2024-03-02T01:03:57;18.73;;;9.18;;
85917;SDS011;76456;49.310;8.632;2024-03-02T01:06:22;18.60;;;9.38;;
85917;SDS011;76456;49.310;8.632;2024-03-02T01:08:48;18.60;;;9.02;;
85917;SDS011;76456;49.310;8.632;2024-03-02T01:11:16;24.08;;;10.63;;
85917;SDS011;76456;49.310;8.632;2024-03-02T01:13:41;20.45;;;9.35;;
85917;SDS011;76456;49.310;8.632;2024-03-02T01:16:07;21.13;;;10.13;;
85917;SDS011;76456;49.310;8.632;2024-03-02T01:18:32;20.52;;;9.82;;
85917;SDS011;76456;49.310;8.632;2024-03-02T01:20:57;22.08;;;9.88;;
85917;SDS011;76456;49.310;8.632;2024-03-02T01:23:23;23.40;;;9.98;;
85917;SDS011;76456;49.310;8.632;2024-03-02T01:25:48;19.55;;;9.13;;
85917;SDS011;76456;49.310;8.632;2024-03-02T01:28:14;17.77;;;10.02;;
85917;SDS011;76456;49.310;8.632;2024-03-02T01:30:40;21.08;;;10.02;;
85917;SDS011;76456;49.310;8.632;2024-03-02T01:33:05;19.63;;;9.10;;
85917;SDS011;76456;49.310;8.632;2024-03-02T01:35:31;20.50;;;9.35;;
85917;SDS011;76456;49.310;8.632;2024-03-02T01:37:57;19.42;;;9.93;;
85917;SDS011;76456;49.310;8.632;2024-03-02T01:40:23;20.88;;;9.70;;
85917;SDS011;76456;49.310;8.632;2024-03-02T01:42:51;19.95;;;9.98;;
85917;SDS011;76456;49.310;8.632;2024-03-02T01:45:18;23.27;;;9.25;;
85917;SDS011;76456;49.310;8.632;2024-03-02T01:47:43;17.73;;;9.30;;
85917;SDS011;76456;49.310;8.632;2024-03-02T01:50:09;19.73;;;9.13;;
85917;SDS011;76456;49.310;8.632;2024-03-02T01:52:36;19.73;;;9.32;;
85917;SDS011;76456;49.310;8.632;2024-03-02T01:55:02;22.40;;;10.25;;
85917;SDS011;76456;49.310;8.632;2024-03-02T01:57:28;20.98;;;8.77;;
85917;SDS011;76456;49.310;8.632;2024-03-02T01:59:54;21.33;;;9.60;;
85917;SDS011;76456;49.310;8.632;2024-03-02T02:02:20;22.33;;;10.13;;
85917;SDS011;76456;49.310;8.632;2024-03-02T02:04:45;19.73;;;9.90;;
85917;SDS011;76456;49.310;8.632;2024-03-02T02:07:10;18.85;;;8.00;;
85917;SDS011;76456;49.310;8.632;2024-03-02T02:09:36;20.88;;;7.45;;
85917;SDS011;76456;49.310;8.632;2024-03-02T02:12:02;19.30;;;7.30;;
85917;SDS011;76456;49.310;8.632;2024-03-02T02:14:29;16.48;;;7.43;;
85917;SDS011;76456;49.310;8.632;2024-03-02T02:16:54;18.17;;;8.57;;
85917;SDS011;76456;49.310;8.632;2024-03-02T02:19:20;20.98;;;8.65;;
85917;SDS011;76456;49.310;8.632;2024-03-02T02:21:45;14.52;;;7.13;;
85917;SDS011;76456;49.310;8.632;2024-03-02T02:24:10;21.25;;;8.73;;
85917;SDS011;76456;49.310;8.632;2024-03-02T02:26:38;16.55;;;8.18;;
85917;SDS011;76456;49.310;8.632;2024-03-02T02:29:03;17.45;;;7.90;;
85917;SDS011;76456;49.310;8.632;2024-03-02T02:31:36;18.95;;;8.65;;
85917;SDS011;76456;49.310;8.632;2024-03-02T02:34:05;17.38;;;7.55;;
85917;SDS011;76456;49.310;8.632;2024-03-02T02:36:31;22.33;;;8.65;;
85917;SDS011;76456;49.310;8.632;2024-03-02T02:38:57;19.73;;;8.75;;
85917;SDS011;76456;49.310;8.632;2024-03-02T02:41:28;17.27;;;8.52;;
85917;SDS011;76456;49.310;8.632;2024-03-02T02:43:53;20.48;;;8.52;;
85917;SDS011;76456;49.310;8.632;2024-03-02T02:46:18;20.33;;;8.77;;
85917;SDS011;76456;49.310;8.632;2024-03-02T02:48:44;19.20;;;9.25;;
85917;SDS011;76456;49.310;8.632;2024-03-02T02:51:09;18.58;;;7.80;;
85917;SDS011;76456;49.310;8.632;2024-03-02T02:53:34;20.23;;;8.80;;
85917;SDS011;76456;49.310;8.632;2024-03-02T02:56:00;16.98;;;8.18;;
85917;SDS011;76456;49.310;8.632;2024-03-02T02:58:25;16.00;;;7.43;;
85917;SDS011;76456;49.310;8.632;2024-03-02T03:00:51;17.98;;;8.38;;
85917;SDS011;76456;49.310;8.632;2024-03-02T03:03:16;21.42;;;8.93;;
85917;SDS011;76456;49.310;8.632;2024-03-02T03:05:41;20.30;;;8.75;;
85917;SDS011;76456;49.310;8.632;2024-03-02T03:08:07;19.23;;;8.40;;
85917;SDS011;76456;49.310;8.632;2024-03-02T03:10:32;20.42;;;9.30;;
85917;SDS011;76456;49.310;8.632;2024-03-02T03:12:58;20.65;;;10.00;;
85917;SDS011;76456;49.310;8.632;2024-03-02T03:15:23;20.42;;;9.40;;
85917;SDS011;76456;49.310;8.632;2024-03-02T03:17:49;22.38;;;9.68;;
85917;SDS011;76456;49.310;8.632;2024-03-02T03:20:15;19.10;;;9.07;;
85917;SDS011;76456;49.310;8.632;2024-03-02T03:22:41;20.85;;;9.10;;
85917;SDS011;76456;49.310;8.632;2024-03-02T03:25:06;19.38;;;9.07;;
85917;SDS011;76456;49.310;8.632;2024-03-02T03:27:34;20.10;;;8.95;;
85917;SDS011;76456;49.310;8.632;2024-03-02T03:30:00;18.20;;;8.57;;
85917;SDS011;76456;49.310;8.632;2024-03-02T03:32:25;19.20;;;9.33;;
85917;SDS011;76456;49.310;8.632;2024-03-02T03:34:50;21.35;;;9.50;;
85917;SDS011;76456;49.310;8.632;2024-03-02T03:37:16;17.45;;;8.32;;
85917;SDS011;76456;49.310;8.632;2024-03-02T03:39:41;16.38;;;8.07;;
85917;SDS011;76456;49.310;8.632;2024-03-02T03:42:06;18.35;;;9.02;;
85917;SDS011;76456;49.310;8.632;2024-03-02T03:44:32;22.97;;;9.50;;
85917;SDS011;76456;49.310;8.632;2024-03-02T03:46:58;18.90;;;9.57;;
85917;SDS011;76456;49.310;8.632;2024-03-02T03:49:23;21.90;;;9.52;;
85917;SDS011;76456;49.310;8.632;2024-03-02T03:51:49;17.23;;;9.45;;
85917;SDS011;76456;49.310;8.632;2024-03-02T03:54:14;21.30;;;9.15;;
85917;SDS011;76456;49.310;8.632;2024-03-02T03:56:39;18.48;;;9.18;;
85917;SDS011;76456;49.310;8.632;2024-03-02T03:59:05;18.75;;;8.75;;
85917;SDS011;76456;49.310;8.632;2024-03-02T04:01:30;17.95;;;7.85;;
85917;SDS011;76456;49.310;8.632;2024-03-02T04:03:56;20.63;;;9.00;;
85917;SDS011;76456;49.310;8.632;2024-03-02T04:06:22;21.77;;;8.43;;
85917;SDS011;76456;49.310;8.632;2024-03-02T04:08:47;16.75;;;8.13;;
85917;SDS011;76456;49.310;8.632;2024-03-02T04:11:13;18.63;;;9.05;;
85917;SDS011;76456;49.310;8.632;2024-03-02T04:13:38;20.33;;;9.48;;
85917;SDS011;76456;49.310;8.632;2024-03-02T04:16:04;22.67;;;10.63;;
85917;SDS011;76456;49.310;8.632;2024-03-02T04:18:30;16.63;;;7.72;;
85917;SDS011;76456;49.310;8.632;2024-03-02T04:20:57;18.27;;;7.72;;
85917;SDS011;76456;49.310;8.632;2024-03-02T04:23:24;17.98;;;8.98;;
85917;SDS011;76456;49.310;8.632;2024-03-02T04:25:49;16.38;;;8.20;;
85917;SDS011;76456;49.310;8.632;2024-03-02T04:28:15;15.82;;;7.50;;
85917;SDS011;76456;49.310;8.632;2024-03-02T04:30:40;17.70;;;7.20;;
85917;SDS011;76456;49.310;8.632;2024-03-02T04:33:06;17.00;;;7.55;;
85917;SDS011;76456;49.310;8.632;2024-03-02T04:35:34;16.02;;;6.97;;
85917;SDS011;76456;49.310;8.632;2024-03-02T04:38:00;16.92;;;7.93;;
85917;SDS011;76456;49.310;8.632;2024-03-02T04:40:25;16.38;;;7.40;;
85917;SDS011;76456;49.310;8.632;2024-03-02T04:42:51;14.53;;;7.47;;
85917;SDS011;76456;49.310;8.632;2024-03-02T04:45:16;17.73;;;7.68;;
85917;SDS011;76456;49.310;8.632;2024-03-02T04:47:42;18.35;;;7.43;;
85917;SDS011;76456;49.310;8.632;2024-03-02T04:50:07;15.40;;;7.78;;
85917;SDS011;76456;49.310;8.632;2024-03-02T04:52:32;15.90;;;7.90;;
85917;SDS011;76456;49.310;8.632;2024-03-02T04:54:58;14.27;;;7.28;;
85917;SDS011;76456;49.310;8.632;2024-03-02T04:57:42;15.32;;;7.10;;
85917;SDS011;76456;49.310;8.632;2024-03-02T05:00:08;15.27;;;7.70;;
85917;SDS011;76456;49.310;8.632;2024-03-02T05:02:34;17.73;;;7.60;;
85917;SDS011;76456;49.310;8.632;2024-03-02T05:05:00;15.32;;;7.35;;
85917;SDS011;76456;49.310;8.632;2024-03-02T05:07:25;14.82;;;7.15;;
85917;SDS011;76456;49.310;8.632;2024-03-02T05:09:51;17.02;;;7.47;;
85917;SDS011;76456;49.310;8.632;2024-03-02T05:12:16;17.60;;;7.05;;
85917;SDS011;76456;49.310;8.632;2024-03-02T05:15:00;14.93;;;6.55;;
85917;SDS011;76456;49.310;8.632;2024-03-02T05:17:27;15.48;;;7.47;;
85917;SDS011;76456;49.310;8.632;2024-03-02T05:19:52;14.40;;;7.60;;
85917;SDS011;76456;49.310;8.632;2024-03-02T05:22:17;20.38;;;8.32;;
85917;SDS011;76456;49.310;8.632;2024-03-02T05:24:43;17.48;;;6.80;;
85917;SDS011;76456;49.310;8.632;2024-03-02T05:27:08;16.88;;;7.95;;
85917;SDS011;76456;49.310;8.632;2024-03-02T05:29:33;15.55;;;7.97;;
85917;SDS011;76456;49.310;8.632;2024-03-02T05:31:59;15.65;;;7.40;;
85917;SDS011;76456;49.310;8.632;2024-03-02T05:34:24;20.48;;;8.98;;
85917;SDS011;76456;49.310;8.632;2024-03-02T05:36:49;18.33;;;8.25;;
85917;SDS011;76456;49.310;8.632;2024-03-02T05:39:15;17.40;;;8.00;;
85917;SDS011;76456;49.310;8.632;2024-03-02T05:41:40;16.48;;;7.65;;
85917;SDS011;76456;49.310;8.632;2024-03-02T05:44:06;20.52;;;8.95;;
85917;SDS011;76456;49.310;8.632;2024-03-02T05:46:31;22.92;;;7.90;;
85917;SDS011;76456;49.310;8.632;2024-03-02T05:48:57;21.95;;;8.68;;
85917;SDS011;76456;49.310;8.632;2024-03-02T05:51:23;22.50;;;8.73;;
85917;SDS011;76456;49.310;8.632;2024-03-02T05:53:48;21.17;;;8.43;;
85917;SDS011;76456;49.310;8.632;2024-03-02T05:56:13;19.43;;;7.80;;
85917;SDS011;76456;49.310;8.632;2024-03-02T05:58:39;18.38;;;8.38;;
85917;SDS011;76456;49.310;8.632;2024-03-02T06:01:24;18.80;;;8.80;;
85917;SDS011;76456;49.310;8.632;2024-03-02T06:03:54;18.90;;;7.97;;
85917;SDS011;76456;49.310;8.632;2024-03-02T06:06:20;26.63;;;10.40;;
85917;SDS011;76456;49.310;8.632;2024-03-02T06:08:46;17.45;;;8.15;;
85917;SDS011;76456;49.310;8.632;2024-03-02T06:11:11;18.35;;;8.10;;
85917;SDS011;76456;49.310;8.632;2024-03-02T06:13:36;18.23;;;8.23;;
85917;SDS011;76456;49.310;8.632;2024-03-02T06:16:01;19.30;;;8.38;;
85917;SDS011;76456;49.310;8.632;2024-03-02T06:18:27;20.95;;;8.55;;
85917;SDS011;76456;49.310;8.632;2024-03-02T06:20:52;19.08;;;8.60;;
85917;SDS011;76456;49.310;8.632;2024-03-02T06:23:18;20.35;;;7.65;;
85917;SDS011;76456;49.310;8.632;2024-03-02T06:25:43;16.95;;;8.10;;
85917;SDS011;76456;49.310;8.632;2024-03-02T06:28:09;17.23;;;8.00;;
85917;SDS011;76456;49.310;8.632;2024-03-02T06:30:34;18.60;;;8.35;;
85917;SDS011;76456;49.310;8.632;2024-03-02T06:32:59;23.55;;;8.60;;
85917;SDS011;76456;49.310;8.632;2024-03-02T06:35:25;18.98;;;7.82;;
85917;SDS011;76456;49.310;8.632;2024-03-02T06:37:51;18.17;;;8.55;;
85917;SDS011;76456;49.310;8.632;2024-03-02T06:40:16;15.95;;;7.72;;
85917;SDS011;76456;49.310;8.632;2024-03-02T06:42:42;17.83;;;7.90;;
85917;SDS011;76456;49.310;8.632;2024-03-02T06:45:07;18.00;;;8.55;;
85917;SDS011;76456;49.310;8.632;2024-03-02T06:47:33;16.10;;;7.78;;
85917;SDS011;76456;49.310;8.632;2024-03-02T06:49:58;18.38;;;8.20;;
85917;SDS011;76456;49.310;8.632;2024-03-02T06:52:24;18.05;;;7.55;;
85917;SDS011;76456;49.310;8.632;2024-03-02T06:54:49;20.90;;;8.07;;
85917;SDS011;76456;49.310;8.632;2024-03-02T06:57:14;15.95;;;7.65;;
85917;SDS011;76456;49.310;8.632;2024-03-02T06:59:41;19.60;;;7.90;;
85917;SDS011;76456;49.310;8.632;2024-03-02T07:02:07;16.80;;;7.43;;
85917;SDS011;76456;49.310;8.632;2024-03-02T07:04:33;18.88;;;7.90;;
85917;SDS011;76456;49.310;8.632;2024-03-02T07:06:59;14.50;;;7.28;;
85917;SDS011;76456;49.310;8.632;2024-03-02T07:09:24;16.13;;;7.45;;
85917;SDS011;76456;49.310;8.632;2024-03-02T07:11:50;16.23;;;6.93;;
85917;SDS011;76456;49.310;8.632;2024-03-02T07:14:16;15.55;;;7.03;;
85917;SDS011;76456;49.310;8.632;2024-03-02T07:16:41;15.15;;;6.65;;
85917;SDS011;76456;49.310;8.632;2024-03-02T07:19:08;14.50;;;6.65;;
85917;SDS011;76456;49.310;8.632;2024-03-02T07:21:33;16.45;;;7.78;;
85917;SDS011;76456;49.310;8.632;2024-03-02T07:23:59;15.70;;;6.78;;
85917;SDS011;76456;49.310;8.632;2024-03-02T07:26:25;15.48;;;6.90;;
85917;SDS011;76456;49.310;8.632;2024-03-02T07:28:50;17.00;;;7.97;;
85917;SDS011;76456;49.310;8.632;2024-03-02T07:31:16;18.17;;;7.78;;
85917;SDS011;76456;49.310;8.632;2024-03-02T07:33:45;15.05;;;7.95;;
85917;SDS011;76456;49.310;8.632;2024-03-02T07:36:11;17.02;;;7.13;;
85917;SDS011;76456;49.310;8.632;2024-03-02T07:38:36;16.95;;;7.43;;
85917;SDS011;76456;49.310;8.632;2024-03-02T07:41:02;13.85;;;6.22;;
85917;SDS011;76456;49.310;8.632;2024-03-02T07:43:29;16.58;;;7.40;;
85917;SDS011;76456;49.310;8.632;2024-03-02T07:45:55;14.57;;;6.55;;
85917;SDS011;76456;49.310;8.632;2024-03-02T07:48:21;17.52;;;7.10;;
85917;SDS011;76456;49.310;8.632;2024-03-02T07:50:46;16.58;;;7.70;;
85917;SDS011;76456;49.310;8.632;2024-03-02T07:53:11;16.95;;;7.13;;
85917;SDS011;76456;49.310;8.632;2024-03-02T07:55:37;15.52;;;7.03;;
85917;SDS011;76456;49.310;8.632;2024-03-02T07:58:02;13.32;;;6.55;;
85917;SDS011;76456;49.310;8.632;2024-03-02T08:00:28;17.65;;;6.75;;
85917;SDS011;76456;49.310;8.632;2024-03-02T08:02:53;14.05;;;6.68;;
85917;SDS011;76456;49.310;8.632;2024-03-02T08:05:19;16.90;;;6.93;;
85917;SDS011;76456;49.310;8.632;2024-03-02T08:07:45;12.65;;;5.95;;
85917;SDS011;76456;49.310;8.632;2024-03-02T08:10:11;12.77;;;6.15;;
85917;SDS011;76456;49.310;8.632;2024-03-02T08:12:37;15.10;;;7.25;;
85917;SDS011;76456;49.310;8.632;2024-03-02T08:15:02;12.07;;;6.25;;
85917;SDS011;76456;49.310;8.632;2024-03-02T08:17:29;14.93;;;6.85;;
85917;SDS011;76456;49.310;8.632;2024-03-02T08:19:54;10.77;;;5.20;;
85917;SDS011;76456;49.310;8.632;2024-03-02T08:22:20;14.35;;;6.80;;
85917;SDS011;76456;49.310;8.632;2024-03-02T08:24:45;12.82;;;5.90;;
85917;SDS011;76456;49.310;8.632;2024-03-02T08:27:11;13.32;;;6.07;;
85917;SDS011;76456;49.310;8.632;2024-03-02T08:29:37;12.73;;;6.20;;
85917;SDS011;76456;49.310;8.632;2024-03-02T08:32:02;11.82;;;5.53;;
85917;SDS011;76456;49.310;8.632;2024-03-02T08:34:28;12.93;;;6.53;;
85917;SDS011;76456;49.310;8.632;2024-03-02T08:36:53;12.13;;;6.27;;
85917;SDS011;76456;49.310;8.632;2024-03-02T08:39:18;11.45;;;6.18;;
85917;SDS011;76456;49.310;8.632;2024-03-02T08:41:44;11.90;;;5.18;;
85917;SDS011;76456;49.310;8.632;2024-03-02T08:44:11;11.27;;;5.32;;
85917;SDS011;76456;49.310;8.632;2024-03-02T08:46:37;11.82;;;5.55;;
85917;SDS011;76456;49.310;8.632;2024-03-02T08:49:03;11.27;;;6.45;;
85917;SDS011;76456;49.310;8.632;2024-03-02T08:51:29;13.50;;;5.70;;
85917;SDS011;76456;49.310;8.632;2024-03-02T08:53:54;10.77;;;5.40;;
85917;SDS011;76456;49.310;8.632;2024-03-02T08:56:20;12.77;;;6.38;;
85917;SDS011;76456;49.310;8.632;2024-03-02T08:58:46;10.63;;;5.43;;
85917;SDS011;76456;49.310;8.632;2024-03-02T09:01:12;12.13;;;5.75;;
85917;SDS011;76456;49.310;8.632;2024-03-02T09:03:37;9.70;;;5.63;;
85917;SDS011;76456;49.310;8.632;2024-03-02T09:06:03;11.65;;;5.47;;
85917;SDS011;76456;49.310;8.632;2024-03-02T09:08:28;10.32;;;5.35;;
85917;SDS011;76456;49.310;8.632;2024-03-02T09:10:54;9.15;;;4.75;;
85917;SDS011;76456;49.310;8.632;2024-03-02T09:13:21;9.40;;;5.00;;
85917;SDS011;76456;49.310;8.632;2024-03-02T09:15:47;10.82;;;5.03;;
85917;SDS011;76456;49.310;8.632;2024-03-02T09:18:12;11.38;;;5.32;;
85917;SDS011;76456;49.310;8.632;2024-03-02T09:20:38;12.18;;;5.10;;
85917;SDS011;76456;49.310;8.632;2024-03-02T09:23:03;11.18;;;4.97;;
85917;SDS011;76456;49.310;8.632;2024-03-02T09:25:29;10.82;;;5.10;;
85917;SDS011;76456;49.310;8.632;2024-03-02T09:27:54;8.98;;;5.18;;
85917;SDS011;76456;49.310;8.632;2024-03-02T09:30:19;10.13;;;5.22;;
85917;SDS011;76456;49.310;8.632;2024-03-02T09:32:45;10.55;;;5.00;;
85917;SDS011;76456;49.310;8.632;2024-03-02T09:35:10;9.18;;;5.13;;
85917;SDS011;76456;49.310;8.632;2024-03-02T09:37:37;9.10;;;4.60;;
85917;SDS011;76456;49.310;8.632;2024-03-02T09:40:02;9.00;;;4.65;;
85917;SDS011;76456;49.310;8.632;2024-03-02T09:42:29;11.38;;;5.13;;
85917;SDS011;76456;49.310;8.632;2024-03-02T09:44:54;9.02;;;4.63;;
85917;SDS011;76456;49.310;8.632;2024-03-02T09:47:20;10.80;;;4.68;;
85917;SDS011;76456;49.310;8.632;2024-03-02T09:49:45;10.05;;;4.88;;
85917;SDS011;76456;49.310;8.632;2024-03-02T09:52:10;8.05;;;5.07;;
85917;SDS011;76456;49.310;8.632;2024-03-02T09:54:37;8.15;;;4.45;;
85917;SDS011;76456;49.310;8.632;2024-03-02T09:57:02;9.75;;;4.82;;
85917;SDS011;76456;49.310;8.632;2024-03-02T09:59:28;10.32;;;5.68;;
85917;SDS011;76456;49.310;8.632;2024-03-02T10:01:57;9.70;;;4.75;;
85917;SDS011;76456;49.310;8.632;2024-03-02T10:04:26;10.15;;;5.18;;
85917;SDS011;76456;49.310;8.632;2024-03-02T10:07:08;8.75;;;4.95;;
85917;SDS011;76456;49.310;8.632;2024-03-02T10:09:41;11.05;;;4.63;;
85917;SDS011;76456;49.310;8.632;2024-03-02T10:12:08;9.98;;;4.72;;
85917;SDS011;76456;49.310;8.632;2024-03-02T10:14:35;10.20;;;4.80;;
85917;SDS011;76456;49.310;8.632;2024-03-02T10:17:22;8.73;;;4.32;;
85917;SDS011;76456;49.310;8.632;2024-03-02T10:19:46;9.27;;;4.35;;
85917;SDS011;76456;49.310;8.632;2024-03-02T10:22:12;9.70;;;5.60;;
85917;SDS011;76456;49.310;8.632;2024-03-02T10:24:42;8.75;;;4.32;;
85917;SDS011;76456;49.310;8.632;2024-03-02T10:27:18;8.35;;;4.60;;
85917;SDS011;76456;49.310;8.632;2024-03-02T10:29:48;10.45;;;5.40;;
85917;SDS011;76456;49.310;8.632;2024-03-02T10:32:13;7.47;;;4.35;;
85917;SDS011;76456;49.310;8.632;2024-03-02T10:34:40;8.50;;;4.68;;
85917;SDS011;76456;49.310;8.632;2024-03-02T10:37:07;7.72;;;4.22;;
85917;SDS011;76456;49.310;8.632;2024-03-02T10:39:34;9.60;;;4.80;;
85917;SDS011;76456;49.310;8.632;2024-03-02T10:42:04;8.65;;;5.10;;
85917;SDS011;76456;49.310;8.632;2024-03-02T10:44:31;9.00;;;4.72;;
85917;SDS011;76456;49.310;8.632;2024-03-02T10:46:59;8.15;;;4.50;;
85917;SDS011;76456;49.310;8.632;2024-03-02T10:49:26;8.23;;;4.35;;
85917;SDS011;76456;49.310;8.632;2024-03-02T10:51:53;10.52;;;4.70;;
85917;SDS011;76456;49.310;8.632;2024-03-02T10:54:19;10.35;;;5.43;;
85917;SDS011;76456;49.310;8.632;2024-03-02T10:56:50;9.00;;;4.40;;
85917;SDS011;76456;49.310;8.632;2024-03-02T11:01:59;9.50;;;4.30;;
85917;SDS011;76456;49.310;8.632;2024-03-02T11:04:26;9.55;;;4.90;;
85917;SDS011;76456;49.310;8.632;2024-03-02T11:06:54;8.20;;;4.93;;
85917;SDS011;76456;49.310;8.632;2024-03-02T11:09:26;7.45;;;5.00;;
85917;SDS011;76456;49.310;8.632;2024-03-02T11:12:03;7.53;;;4.65;;
85917;SDS011;76456;49.310;8.632;2024-03-02T11:14:34;8.57;;;5.22;;
85917;SDS011;76456;49.310;8.632;2024-03-02T11:17:05;8.50;;;4.82;;
85917;SDS011;76456;49.310;8.632;2024-03-02T11:19:31;6.47;;;3.80;;
85917;SDS011;76456;49.310;8.632;2024-03-02T11:21:59;7.63;;;4.50;;
85917;SDS011;76456;49.310;8.632;2024-03-02T11:26:57;7.25;;;4.05;;
85917;SDS011;76456;49.310;8.632;2024-03-02T11:32:01;6.00;;;3.97;;
85917;SDS011;76456;49.310;8.632;2024-03-02T11:34:30;5.95;;;3.92;;
85917;SDS011;76456;49.310;8.632;2024-03-02T11:36:56;6.90;;;3.92;;
85917;SDS011;76456;49.310;8.632;2024-03-02T11:39:24;6.03;;;3.63;;
85917;SDS011;76456;49.310;8.632;2024-03-02T11:41:50;7.45;;;4.15;;
85917;SDS011;76456;49.310;8.632;2024-03-02T11:44:15;5.30;;;3.75;;
85917;SDS011;76456;49.310;8.632;2024-03-02T11:46:41;7.07;;;4.80;;
85917;SDS011;76456;49.310;8.632;2024-03-02T11:49:06;7.30;;;4.72;;
85917;SDS011;76456;49.310;8.632;2024-03-02T11:51:33;5.78;;;3.55;;
85917;SDS011;76456;49.310;8.632;2024-03-02T11:54:00;5.63;;;3.72;;
85917;SDS011;76456;49.310;8.632;2024-03-02T11:56:27;6.90;;;3.90;;
85917;SDS011;76456;49.310;8.632;2024-03-02T11:58:55;4.95;;;3.72;;
85917;SDS011;76456;49.310;8.632;2024-03-02T12:01:22;7.28;;;3.97;;
85917;SDS011;76456;49.310;8.632;2024-03-02T12:03:48;5.00;;;3.70;;
85917;SDS011;76456;49.310;8.632;2024-03-02T12:06:14;4.97;;;3.47;;
85917;SDS011;76456;49.310;8.632;2024-03-02T12:08:40;6.00;;;3.95;;
85917;SDS011;76456;49.310;8.632;2024-03-02T12:11:05;9.25;;;5.03;;
85917;SDS011;76456;49.310;8.632;2024-03-02T12:13:31;6.07;;;4.15;;
85917;SDS011;76456;49.310;8.632;2024-03-02T12:15:58;5.22;;;3.88;;
85917;SDS011;76456;49.310;8.632;2024-03-02T12:18:24;5.70;;;4.38;;
85917;SDS011;76456;49.310;8.632;2024-03-02T12:20:50;6.72;;;4.13;;
85917;SDS011;76456;49.310;8.632;2024-03-02T12:23:23;4.93;;;3.75;;
85917;SDS011;76456;49.310;8.632;2024-03-02T12:25:48;5.18;;;3.83;;
85917;SDS011;76456;49.310;8.632;2024-03-02T12:28:14;5.10;;;3.20;;
85917;SDS011;76456;49.310;8.632;2024-03-02T12:30:40;4.97;;;3.67;;
85917;SDS011;76456;49.310;8.632;2024-03-02T12:33:05;4.93;;;3.15;;
85917;SDS011;76456;49.310;8.632;2024-03-02T12:35:31;5.82;;;2.90;;
85917;SDS011;76456;49.310;8.632;2024-03-02T12:37:56;12.70;;;3.08;;
85917;SDS011;76456;49.310;8.632;2024-03-02T12:40:22;4.65;;;3.10;;
85917;SDS011;76456;49.310;8.632;2024-03-02T12:42:47;5.72;;;3.08;;
85917;SDS011;76456;49.310;8.632;2024-03-02T12:45:14;6.43;;;3.00;;
85917;SDS011;76456;49.310;8.632;2024-03-02T12:47:41;4.55;;;3.60;;
85917;SDS011;76456;49.310;8.632;2024-03-02T12:50:07;7.35;;;3.20;;
85917;SDS011;76456;49.310;8.632;2024-03-02T12:52:33;4.63;;;3.38;;
85917;SDS011;76456;49.310;8.632;2024-03-02T12:55:03;6.40;;;3.40;;
85917;SDS011;76456;49.310;8.632;2024-03-02T12:57:30;4.43;;;2.90;;
85917;SDS011;76456;49.310;8.632;2024-03-02T13:00:06;4.00;;;2.90;;
85917;SDS011;76456;49.310;8.632;2024-03-02T13:02:35;3.65;;;2.80;;
85917;SDS011;76456;49.310;8.632;2024-03-02T13:05:01;3.75;;;2.97;;
85917;SDS011;76456;49.310;8.632;2024-03-02T13:07:27;5.55;;;3.55;;
85917;SDS011;76456;49.310;8.632;2024-03-02T13:09:53;4.38;;;3.40;;
85917;SDS011;76456;49.310;8.632;2024-03-02T13:12:21;4.10;;;3.25;;
85917;SDS011;76456;49.310;8.632;2024-03-02T13:14:48;5.80;;;3.15;;
85917;SDS011;76456;49.310;8.632;2024-03-02T13:17:15;4.85;;;3.03;;
85917;SDS011;76456;49.310;8.632;2024-03-02T13:19:58;4.45;;;3.00;;
85917;SDS011;76456;49.310;8.632;2024-03-02T13:22:24;4.00;;;2.83;;
85917;SDS011;76456;49.310;8.632;2024-03-02T13:24:51;4.55;;;3.33;;
85917;SDS011;76456;49.310;8.632;2024-03-02T13:27:18;5.15;;;2.20;;
85917;SDS011;76456;49.310;8.632;2024-03-02T13:29:49;2.58;;;2.08;;
85917;SDS011;76456;49.310;8.632;2024-03-02T13:32:15;3.00;;;1.98;;
85917;SDS011;76456;49.310;8.632;2024-03-02T13:34:41;1.95;;;1.38;;
85917;SDS011;76456;49.310;8.632;2024-03-02T13:37:07;2.55;;;1.65;;
85917;SDS011;76456;49.310;8.632;2024-03-02T13:39:33;2.70;;;1.65;;
85917;SDS011;76456;49.310;8.632;2024-03-02T13:42:04;2.25;;;1.50;;
85917;SDS011;76456;49.310;8.632;2024-03-02T13:44:32;2.78;;;1.80;;
85917;SDS011;76456;49.310;8.632;2024-03-02T13:46:59;1.75;;;1.30;;
85917;SDS011;76456;49.310;8.632;2024-03-02T13:49:25;2.38;;;1.38;;
85917;SDS011;76456;49.310;8.632;2024-03-02T13:51:58;1.92;;;1.45;;
85917;SDS011;76456;49.310;8.632;2024-03-02T13:54:25;2.33;;;1.23;;
85917;SDS011;76456;49.310;8.632;2024-03-02T13:56:51;3.95;;;1.48;;
85917;SDS011;76456;49.310;8.632;2024-03-02T13:59:17;3.03;;;1.50;;
85917;SDS011;76456;49.310;8.632;2024-03-02T14:01:42;3.00;;;1.25;;
85917;SDS011;76456;49.310;8.632;2024-03-02T14:04:09;1.83;;;1.02;;
85917;SDS011;76456;49.310;8.632;2024-03-02T14:06:35;1.40;;;1.02;;
85917;SDS011;76456;49.310;8.632;2024-03-02T14:09:00;2.70;;;1.20;;
85917;SDS011;76456;49.310;8.632;2024-03-02T14:11:25;1.95;;;0.80;;
85917;SDS011;76456;49.310;8.632;2024-03-02T14:13:51;2.08;;;0.80;;
85917;SDS011;76456;49.310;8.632;2024-03-02T14:16:19;1.35;;;0.80;;
85917;SDS011;76456;49.310;8.632;2024-03-02T14:18:45;1.38;;;0.80;;
85917;SDS011;76456;49.310;8.632;2024-03-02T14:21:10;3.97;;;1.13;;
85917;SDS011;76456;49.310;8.632;2024-03-02T14:23:36;1.70;;;1.40;;
85917;SDS011;76456;49.310;8.632;2024-03-02T14:26:01;1.52;;;0.80;;
85917;SDS011;76456;49.310;8.632;2024-03-02T14:28:27;1.23;;;0.55;;
85917;SDS011;76456;49.310;8.632;2024-03-02T14:30:53;1.55;;;0.82;;
85917;SDS011;76456;49.310;8.632;2024-03-02T14:33:18;5.28;;;2.80;;
85917;SDS011;76456;49.310;8.632;2024-03-02T14:35:44;2.15;;;1.10;;
85917;SDS011;76456;49.310;8.632;2024-03-02T14:38:10;1.83;;;1.20;;
85917;SDS011;76456;49.310;8.632;2024-03-02T14:40:37;2.35;;;1.42;;